Aérodrome :
LOGIN :

S'inscrire | Disclaimer

   EN    FR    IT 

 










Légende :    VFR   VFR Marginal   IFR   IFR Intensif   IFR Très Intensif
Visi : 
Plafond : 
>= 8 km
>= 3000ft
5 à 8 km
1000 à 3000 ft
1500m à 5 km
500 à 1000 ft
800 à 1500m
200 à 500 ft
< 800m
< 200 ft
Symboles :   Orages  Brouillard  Fortes neiges  Fortes précipitations  Vent > 20 kt
SIGMETs :   Divers  Orages  Givrage  Turbulence  Onde Orograph.  Cendres Volcan.






- Altitude de l'aérodrome : 776 ft
- Code IATA : RMS


ETAR - Ramstein Air Base

DERNIER METAR :
  • 191156Z AUTO 25003KT 9999 CLR 06/04 A3003 RMK AO2 SLP181 60001 70003 T00600043 10062 20043 50001 $

METARs EXPIRÉS :
  • 191056Z AUTO 28006KT 9999 SCT016 BKN065 06/05 A3004 RMK AO2 SLP184 T00590050 $
  • 190956Z AUTO 27004KT 9999 FEW010 BKN060 05/05 A3004 RMK AO2 SLP185 T00530053 $
  • 190938Z AUTO 27006KT 9999 FEW010 SCT060 05/05 A3004 RMK AO2 SLP185 $

TAF TAF ETAR
Valide du 19 à 10h jusqu'au 20 à 16h UTC


191000Z 1910/2016 VRB06KT 9999 FEW015 BKN060 620602 QNH3004INS
BECMG 1919/1920 VRB06KT 6000 BR FEW020 QNH3006INS
BECMG 2002/2003 VRB06KT 3200 BR FEW004 QNH3003INS
BECMG 2003/2004 VRB06KT 0400 FZFG VV002 620003 QNH3000INS
BECMG 2011/2012 07009KT 8000 BR SCT010 QNH2998INS TX06/1914Z TNM02/2000Z



MET'MAP, la Météo Aéronautique d'un coup d'oeil ! - Copyright ORBIFLY Décembre 2007 - Disclaimer

ORBIFLY MET'MAP TEAM :

Programmation & Développement : Alexandra Zaïnal
Conception & Développement : Baudouin d'Aumeries
Co-Programmation & Développement : Marc-Olivier Méhu
Soutien technique & logistique : Manuel Goepfert

Contact : metmap@orbifly.com




SOURCES & CREDITS :

   NOAA